< Typhoon 201011 2010 Season Typhoon 201013 >
Typhoon 201012 (MALAKAS)
General InformationTrack Information on Google MapsDetailed Wind InformationAccess Analytics MapList of All Images || NewsDisaster Info.WeblogTrackbackTyphoon FrontTwiphoonTyphoon Now!Typhoon ImaginationResourceGoogle EarthGE AnimationAtom FeedGeoJSON
Detalied Best Track (Time Zone = UTC)
Year Month Day Hour Lat. Long. Pressure (hPa) Wind (kt) Class Image Chart
2010 9 20 06 19.0 146.5 1008 0 2 Image Chart
2010 9 20 12 19.1 146.0 1010 0 2 Image Chart
2010 9 20 18 19.2 145.5 1008 0 2 Image Chart
2010 9 21 00 19.3 145.2 1008 0 2 Image Chart
2010 9 21 06 19.3 144.6 1006 0 2 Image Chart
2010 9 21 12 19.4 144.0 1006 0 2 Image Chart
2010 9 21 18 19.4 143.4 1004 0 2 Image Chart
2010 9 22 00 19.4 142.9 1002 35 3 Image Chart
2010 9 22 06 19.4 142.4 998 40 3 Image Chart
2010 9 22 12 19.5 141.8 994 45 3 Image Chart
2010 9 22 18 19.8 141.6 990 50 4 Image Chart
2010 9 23 00 20.1 141.5 985 55 4 Image Chart
2010 9 23 06 20.6 141.3 980 65 5 Image Chart
2010 9 23 12 21.2 141.1 980 65 5 Image Chart
2010 9 23 18 22.8 140.9 970 70 5 Image Chart
2010 9 24 00 24.2 140.9 970 70 5 Image Chart
2010 9 24 03 25.2 140.9 965 70 5 Image Chart
2010 9 24 06 26.3 141.3 960 75 5 Image Chart
2010 9 24 09 27.3 141.5 960 75 5 Image Chart
2010 9 24 12 28.5 141.7 955 80 5 Image Chart
2010 9 24 15 29.7 142.1 950 80 5 Image Chart
2010 9 24 18 30.9 142.8 945 85 5 Image Chart
2010 9 25 00 34.2 144.4 945 80 5 Image Chart
2010 9 25 06 36.9 145.9 955 75 5 Image Chart
2010 9 25 12 39.4 148.2 966 0 6 Image Chart
2010 9 25 18 41.6 150.6 966 0 6 Image Chart
2010 9 26 00 43.8 153.4 968 0 6 Image Chart
2010 9 26 06 46.3 156.3 970 0 6 Image Chart
2010 9 26 12 48.4 159.0 970 0 6 Image Chart
2010 9 26 18 50.3 162.6 970 0 6 Image Chart
2010 9 27 00 51.9 165.8 972 0 6 Image Chart
2010 9 27 06 53.1 169.5 972 0 6 Image Chart
2010 9 27 12 53.6 173.2 972 0 6 Image Chart
2010 9 27 18 54.3 178.7 974 0 6 Image Chart
2010 9 28 00 54.7 184.1 976 0 6 Image Chart
Japan Meteorological Agency Best Track Data | Correction Date : 2010-11-15
< Typhoon 201011 2010 Season Typhoon 201013 >

Help